Time;durP1;ratioP1;P1;durP2;ratioP2;P2;SDS_P1;SDS_P2;PMS_P1;PMS_P2;Temp;Humidity;BMP_temperature;BMP_pressure;BME280_temperature;BME280_humidity;BME280_pressure;Samples;Min_cycle;Max_cycle;Signal;HPM_P1;HPM_P2
2023/07/07 00:01:09;;;;;;;4.87;4.17;;;15.50;99.90;;;;;;5033717;28;20441;-58
2023/07/07 00:03:35;;;;;;;5.23;4.10;;;15.40;99.90;;;;;;5033755;28;20524;-59
2023/07/07 00:06:04;;;;;;;5.27;4.30;;;15.40;99.90;;;;;;5033597;28;20460;-59
2023/07/07 00:08:31;;;;;;;4.13;3.70;;;15.40;99.90;;;;;;5033131;28;20821;-59
2023/07/07 00:10:59;;;;;;;9.60;3.97;;;15.30;99.90;;;;;;5033344;28;20562;-58
2023/07/07 00:13:27;;;;;;;4.40;3.93;;;15.30;99.90;;;;;;5033340;28;20843;-58
2023/07/07 00:15:58;;;;;;;3.53;3.23;;;15.30;99.90;;;;;;5032951;28;20461;-59
2023/07/07 00:18:27;;;;;;;5.00;4.27;;;15.20;99.90;;;;;;5033275;28;20437;-58
2023/07/07 00:20:54;;;;;;;8.50;4.40;;;15.20;99.90;;;;;;5033154;28;20511;-58
2023/07/07 00:23:22;;;;;;;6.50;4.40;;;15.20;99.90;;;;;;5033307;28;20445;-58
2023/07/07 00:25:59;;;;;;;4.60;4.20;;;15.10;99.90;;;;;;5033141;28;21009;-59
2023/07/07 00:28:26;;;;;;;4.50;3.70;;;15.10;99.90;;;;;;5037010;28;20482;-58
2023/07/07 00:30:52;;;;;;;4.07;3.40;;;15.00;99.90;;;;;;5037244;28;20445;-58
2023/07/07 00:33:19;;;;;;;4.73;3.53;;;15.00;99.90;;;;;;5037408;28;20452;-56
2023/07/07 00:35:47;;;;;;;5.90;4.60;;;15.00;99.90;;;;;;5037641;28;20468;-57
2023/07/07 00:38:14;;;;;;;5.17;3.73;;;15.00;99.90;;;;;;5037149;28;20884;-59
2023/07/07 00:40:42;;;;;;;5.40;4.30;;;15.00;99.90;;;;;;5037598;28;20449;-58
2023/07/07 00:43:12;;;;;;;3.80;3.50;;;14.90;99.90;;;;;;5037188;28;20444;-58
2023/07/07 00:45:38;;;;;;;3.93;3.63;;;14.90;99.90;;;;;;5037200;28;20460;-59
2023/07/07 00:48:10;;;;;;;4.97;4.20;;;14.90;99.90;;;;;;5037026;28;20471;-58
2023/07/07 00:50:40;;;;;;;4.80;3.70;;;14.90;99.90;;;;;;5037277;28;20440;-59
2023/07/07 00:53:07;;;;;;;3.53;3.23;;;14.90;99.90;;;;;;5036453;28;20794;-58
2023/07/07 00:55:38;;;;;;;5.00;4.53;;;14.80;99.90;;;;;;5036291;28;20955;-58
2023/07/07 00:58:09;;;;;;;4.37;3.80;;;14.80;99.90;;;;;;5036682;28;20472;-59
2023/07/07 01:00:39;;;;;;;4.83;3.77;;;14.80;99.90;;;;;;5037529;28;20485;-60
2023/07/07 01:03:11;;;;;;;5.70;3.80;;;14.70;99.90;;;;;;5037356;28;20467;-57
2023/07/07 01:05:41;;;;;;;4.80;4.23;;;14.70;99.90;;;;;;5036515;28;20566;-59
2023/07/07 01:08:08;;;;;;;5.23;4.27;;;14.70;99.90;;;;;;5037617;28;20806;-58
2023/07/07 01:10:35;;;;;;;7.00;4.67;;;14.60;99.90;;;;;;5035904;28;20445;-58
2023/07/07 01:13:02;;;;;;;5.57;3.80;;;14.60;99.90;;;;;;5036242;28;20444;-58
2023/07/07 01:15:36;;;;;;;3.50;3.20;;;14.50;99.90;;;;;;5036353;28;20451;-58
2023/07/07 01:18:12;;;;;;;4.40;3.67;;;14.50;99.90;;;;;;5035974;28;20840;-59
2023/07/07 01:20:42;;;;;;;4.03;3.63;;;14.50;99.90;;;;;;5036828;28;20809;-58
2023/07/07 01:23:47;;;;;;;4.20;3.47;;;14.50;99.90;;;;;;5036783;28;20436;-58
2023/07/07 01:26:22;;;;;;;5.23;4.40;;;14.50;99.90;;;;;;5036143;28;20465;-58
2023/07/07 01:29:22;;;;;;;4.43;4.03;;;14.50;99.90;;;;;;5036317;28;20516;-57
2023/07/07 01:31:56;;;;;;;3.70;3.40;;;14.40;99.90;;;;;;5036010;28;20429;-59
2023/07/07 01:34:24;;;;;;;5.10;3.73;;;14.40;99.90;;;;;;5036197;28;20769;-58
2023/07/07 01:36:50;;;;;;;5.63;4.80;;;14.40;99.90;;;;;;5035872;28;20512;-58
2023/07/07 01:39:17;;;;;;;5.10;4.60;;;14.40;99.90;;;;;;5035478;28;20445;-58
2023/07/07 01:41:53;;;;;;;3.90;3.50;;;14.30;99.90;;;;;;5036159;28;20445;-58
2023/07/07 01:44:28;;;;;;;3.90;3.53;;;14.30;99.90;;;;;;5035854;28;20439;-56
2023/07/07 01:47:01;;;;;;;5.60;3.83;;;14.30;99.90;;;;;;5035393;28;20460;-57
2023/07/07 01:49:32;;;;;;;4.20;3.80;;;14.30;99.90;;;;;;5035613;28;20438;-57
2023/07/07 01:52:04;;;;;;;4.70;3.47;;;14.20;99.90;;;;;;5035562;28;20436;-57
2023/07/07 01:54:35;;;;;;;4.37;3.60;;;14.20;99.90;;;;;;5035864;28;20864;-58
2023/07/07 01:57:03;;;;;;;4.87;4.33;;;14.10;99.90;;;;;;5035026;28;20491;-58
2023/07/07 01:59:31;;;;;;;6.23;4.37;;;14.10;99.90;;;;;;5035561;28;20449;-58
2023/07/07 02:01:59;;;;;;;6.13;4.80;;;14.10;99.90;;;;;;5035475;28;20441;-58
2023/07/07 02:04:26;;;;;;;4.10;3.50;;;14.10;99.90;;;;;;5034925;28;20819;-58
2023/07/07 02:06:53;;;;;;;4.57;3.87;;;14.00;99.90;;;;;;5035094;28;20996;-58
2023/07/07 02:09:21;;;;;;;4.03;3.40;;;14.00;99.90;;;;;;5035509;28;20852;-58
2023/07/07 02:11:48;;;;;;;5.60;4.03;;;14.00;99.90;;;;;;5035603;28;20445;-58
2023/07/07 02:14:14;;;;;;;4.53;3.33;;;14.00;99.90;;;;;;5034998;28;20449;-58
2023/07/07 02:16:41;;;;;;;4.20;3.80;;;14.00;99.90;;;;;;5034936;28;20465;-58
2023/07/07 02:19:09;;;;;;;5.03;4.13;;;13.90;99.90;;;;;;5035239;28;20818;-58
2023/07/07 02:21:36;;;;;;;5.00;4.47;;;13.90;99.90;;;;;;5034855;28;20943;-58
2023/07/07 02:24:03;;;;;;;5.17;3.70;;;13.90;99.90;;;;;;5034964;28;20460;-58
2023/07/07 02:26:30;;;;;;;5.77;3.47;;;13.90;99.90;;;;;;5034980;28;20469;-59
2023/07/07 02:28:56;;;;;;;4.70;3.17;;;13.90;99.90;;;;;;5035144;28;20773;-58
2023/07/07 02:31:24;;;;;;;5.53;3.73;;;13.90;99.90;;;;;;5034789;28;20456;-58
2023/07/07 02:33:51;;;;;;;3.87;3.00;;;13.90;99.90;;;;;;5034569;28;20520;-57
2023/07/07 02:36:19;;;;;;;4.07;3.50;;;13.90;99.90;;;;;;5034207;28;20838;-58
2023/07/07 02:38:46;;;;;;;2.70;2.50;;;13.90;99.90;;;;;;5034646;28;20541;-58
2023/07/07 02:41:13;;;;;;;4.50;3.40;;;13.90;99.90;;;;;;5034838;28;20437;-58
2023/07/07 02:43:41;;;;;;;4.07;3.63;;;13.90;99.90;;;;;;5034513;28;20453;-58
2023/07/07 02:46:08;;;;;;;4.17;2.60;;;13.90;99.90;;;;;;5034103;28;20460;-57
2023/07/07 02:48:34;;;;;;;4.00;3.33;;;13.80;99.90;;;;;;5034388;28;20446;-57
2023/07/07 02:51:03;;;;;;;4.53;3.13;;;13.80;99.90;;;;;;5033133;28;20445;-57
2023/07/07 02:53:34;;;;;;;4.03;3.00;;;13.80;99.90;;;;;;5033759;28;20446;-56
2023/07/07 02:56:01;;;;;;;3.57;3.23;;;13.80;99.90;;;;;;5033813;28;20472;-57
2023/07/07 02:58:28;;;;;;;6.10;3.37;;;13.80;99.90;;;;;;5033917;28;20465;-57
2023/07/07 03:01:09;;;;;;;5.70;3.67;;;13.70;99.90;;;;;;5034587;28;20456;-57
2023/07/07 03:03:38;;;;;;;3.73;3.20;;;13.70;99.90;;;;;;5034252;28;20532;-58
2023/07/07 03:06:05;;;;;;;3.27;2.90;;;13.70;99.90;;;;;;5033944;28;20539;-58
2023/07/07 03:08:33;;;;;;;5.27;4.07;;;13.80;99.90;;;;;;5034815;28;20544;-57
2023/07/07 03:11:05;;;;;;;6.17;3.70;;;13.80;99.90;;;;;;5034074;28;20445;-58
2023/07/07 03:13:32;;;;;;;6.80;3.53;;;13.80;99.90;;;;;;5034217;28;20487;-58
2023/07/07 03:15:58;;;;;;;3.90;3.10;;;13.80;99.90;;;;;;5033879;28;20457;-58
2023/07/07 03:18:25;;;;;;;3.70;3.40;;;13.90;99.90;;;;;;5036907;28;20484;-59
2023/07/07 03:20:52;;;;;;;4.17;3.43;;;13.90;99.90;;;;;;5036145;28;20453;-57
2023/07/07 03:23:19;;;;;;;3.30;3.00;;;13.90;99.90;;;;;;5033462;28;20453;-57
2023/07/07 03:25:47;;;;;;;5.63;3.27;;;14.00;99.90;;;;;;5033227;28;20469;-57
2023/07/07 03:28:13;;;;;;;3.73;3.33;;;14.00;99.90;;;;;;5033136;28;20437;-57
2023/07/07 03:30:40;;;;;;;3.70;3.23;;;14.10;99.90;;;;;;5033307;28;20450;-56
2023/07/07 03:33:07;;;;;;;6.10;3.33;;;14.10;99.90;;;;;;5033771;28;20448;-58
2023/07/07 03:35:34;;;;;;;3.50;2.70;;;14.10;99.90;;;;;;5033291;28;20437;-58
2023/07/07 03:38:01;;;;;;;4.80;3.30;;;14.20;99.90;;;;;;5033023;28;20476;-58
2023/07/07 03:40:27;;;;;;;4.50;3.20;;;14.20;99.90;;;;;;5033429;28;20445;-57
2023/07/07 03:42:55;;;;;;;3.67;3.33;;;14.20;99.90;;;;;;5033465;28;20451;-57
2023/07/07 03:45:23;;;;;;;2.80;2.60;;;14.20;99.90;;;;;;5033643;28;20449;-58
2023/07/07 03:47:50;;;;;;;3.87;3.50;;;14.30;99.90;;;;;;5033540;28;20459;-58
2023/07/07 03:50:17;;;;;;;4.13;3.57;;;14.30;99.90;;;;;;5033570;28;20860;-58
2023/07/07 03:52:44;;;;;;;3.83;2.90;;;14.40;99.90;;;;;;5033381;28;20445;-58
2023/07/07 03:55:11;;;;;;;4.93;2.73;;;14.50;99.90;;;;;;5032941;28;20958;-58
2023/07/07 03:57:37;;;;;;;3.57;3.00;;;14.50;99.90;;;;;;5032862;28;20495;-57
2023/07/07 04:00:07;;;;;;;4.23;2.70;;;14.60;99.90;;;;;;5033117;28;20467;-58
2023/07/07 04:02:35;;;;;;;3.23;2.73;;;14.70;99.90;;;;;;5032403;28;20441;-58
2023/07/07 04:05:02;;;;;;;9.17;2.90;;;14.80;99.90;;;;;;5032920;28;20472;-57
2023/07/07 04:07:29;;;;;;;4.30;3.27;;;14.90;99.90;;;;;;5032893;28;20464;-57
2023/07/07 04:11:57;;;;;;;3.27;2.87;;;15.10;99.90;;;;;;5091156;27;20617;-58
2023/07/07 04:14:27;;;;;;;2.90;2.70;;;15.30;99.90;;;;;;5090835;28;20454;-58
2023/07/07 04:16:54;;;;;;;3.10;2.57;;;15.50;99.90;;;;;;5092120;28;20760;-58
2023/07/07 04:19:21;;;;;;;3.23;2.93;;;16.00;99.90;;;;;;5090695;28;20439;-58
2023/07/07 04:21:48;;;;;;;3.50;2.77;;;16.50;99.90;;;;;;5090789;28;20446;-57
2023/07/07 04:24:20;;;;;;;3.03;2.50;;;16.80;99.90;;;;;;5090488;28;20967;-57
2023/07/07 04:26:47;;;;;;;3.50;2.50;;;16.90;99.90;;;;;;5090878;28;20466;-57
2023/07/07 04:29:15;;;;;;;2.60;2.33;;;16.90;99.90;;;;;;5091981;28;20450;-55
2023/07/07 04:31:45;;;;;;;6.20;2.60;;;16.90;99.90;;;;;;5091153;28;21105;-58
2023/07/07 04:34:12;;;;;;;3.30;2.30;;;16.90;99.90;;;;;;5091201;28;20438;-57
2023/07/07 04:36:39;;;;;;;2.63;2.27;;;17.20;99.70;;;;;;5089847;28;20470;-58
2023/07/07 04:39:06;;;;;;;3.23;2.57;;;17.70;98.70;;;;;;5089991;28;20466;-59
2023/07/07 04:41:33;;;;;;;2.80;2.10;;;18.20;96.70;;;;;;5090078;28;20445;-58
2023/07/07 04:44:01;;;;;;;2.63;2.00;;;18.70;94.30;;;;;;5089990;28;20442;-58
2023/07/07 04:46:32;;;;;;;4.17;2.20;;;19.00;92.00;;;;;;5089583;28;20549;-56
2023/07/07 04:48:59;;;;;;;3.50;2.53;;;19.30;90.70;;;;;;5090106;28;20426;-56
2023/07/07 04:51:26;;;;;;;3.50;1.93;;;19.70;88.10;;;;;;5088836;28;20484;-57
2023/07/07 04:53:53;;;;;;;4.10;2.37;;;20.10;83.30;;;;;;5090088;28;20452;-58
2023/07/07 04:56:22;;;;;;;5.13;2.30;;;20.20;79.70;;;;;;5108615;22;20493;-57
2023/07/07 04:58:51;;;;;;;4.27;1.83;;;20.20;77.80;;;;;;5069783;28;20445;-57
2023/07/07 05:01:21;;;;;;;3.63;2.10;;;20.30;76.30;;;;;;5069554;28;20445;-57
2023/07/07 05:03:52;;;;;;;3.47;2.27;;;20.30;74.80;;;;;;5070168;28;20423;-57
2023/07/07 05:06:19;;;;;;;3.43;2.37;;;20.30;73.80;;;;;;5070501;28;20818;-57
2023/07/07 05:08:46;;;;;;;4.43;2.77;;;20.30;72.70;;;;;;5070771;28;20514;-57
2023/07/07 05:11:15;;;;;;;3.57;2.47;;;20.40;72.00;;;;;;5070707;28;20506;-58
2023/07/07 05:13:42;;;;;;;4.53;3.50;;;20.60;71.20;;;;;;5070392;28;20460;-58
2023/07/07 05:16:11;;;;;;;2.63;2.00;;;20.80;69.30;;;;;;5069594;28;20468;-57
2023/07/07 05:18:38;;;;;;;4.40;2.47;;;20.90;67.70;;;;;;5068880;28;20446;-60
2023/07/07 05:21:08;;;;;;;2.00;1.80;;;21.10;66.80;;;;;;5067999;28;20440;-58
2023/07/07 05:23:35;;;;;;;2.60;2.07;;;21.20;65.40;;;;;;5055732;28;20451;-58
2023/07/07 05:26:02;;;;;;;5.50;1.93;;;21.30;64.70;;;;;;5056036;28;20448;-57
2023/07/07 05:28:29;;;;;;;4.80;2.40;;;21.60;63.80;;;;;;5055522;28;20441;-57
2023/07/07 05:31:02;;;;;;;4.83;2.13;;;21.90;62.30;;;;;;5055439;28;20487;-57
2023/07/07 05:33:30;;;;;;;3.30;1.83;;;22.20;60.70;;;;;;5056978;28;20436;-57
2023/07/07 05:36:00;;;;;;;3.20;2.13;;;22.40;59.60;;;;;;5055298;28;20516;-58
2023/07/07 05:38:30;;;;;;;3.40;2.47;;;22.60;58.90;;;;;;5055843;28;20439;-56
2023/07/07 05:40:57;;;;;;;4.40;2.50;;;22.80;57.90;;;;;;5055051;28;20938;-57
2023/07/07 05:43:26;;;;;;;2.23;2.00;;;23.00;57.10;;;;;;5055228;28;20905;-59
2023/07/07 05:45:55;;;;;;;4.33;2.27;;;23.00;56.50;;;;;;5057445;28;20500;-59
2023/07/07 05:48:22;;;;;;;2.83;1.90;;;23.10;56.00;;;;;;5055540;28;20446;-57
2023/07/07 05:50:49;;;;;;;3.83;2.10;;;23.00;55.70;;;;;;5054748;28;20485;-57
2023/07/07 05:53:16;;;;;;;2.97;2.07;;;23.00;55.60;;;;;;5054900;28;20444;-58
2023/07/07 05:55:46;;;;;;;3.00;2.13;;;23.00;55.50;;;;;;5055095;28;20950;-57
2023/07/07 05:58:14;;;;;;;3.70;2.27;;;23.00;55.00;;;;;;5055304;28;20445;-57
2023/07/07 06:00:41;;;;;;;5.33;2.50;;;23.00;54.70;;;;;;5056140;28;20448;-57
2023/07/07 06:03:08;;;;;;;3.13;2.83;;;23.10;54.60;;;;;;5057709;28;20443;-57
2023/07/07 06:05:34;;;;;;;3.13;2.83;;;23.10;54.40;;;;;;5055719;28;20452;-57
2023/07/07 06:08:04;;;;;;;2.50;2.27;;;23.20;54.20;;;;;;5055728;28;20461;-57
2023/07/07 06:10:31;;;;;;;3.20;2.03;;;23.30;54.00;;;;;;5055948;28;20492;-56
2023/07/07 06:13:00;;;;;;;3.40;2.30;;;23.30;53.80;;;;;;5055042;28;20457;-57
2023/07/07 06:15:27;;;;;;;3.37;2.83;;;23.30;53.70;;;;;;5055287;28;20451;-57
2023/07/07 06:17:54;;;;;;;4.80;2.23;;;23.20;53.70;;;;;;5055148;28;20477;-58
2023/07/07 06:20:20;;;;;;;2.23;1.90;;;23.00;53.80;;;;;;5055261;28;20445;-58
2023/07/07 06:22:47;;;;;;;3.57;2.23;;;22.90;54.10;;;;;;5055504;28;20540;-58
2023/07/07 06:25:14;;;;;;;3.73;2.80;;;22.90;54.70;;;;;;5055225;28;20447;-58
2023/07/07 06:27:41;;;;;;;3.00;2.20;;;22.90;54.10;;;;;;5054788;28;20953;-60
2023/07/07 06:30:10;;;;;;;2.70;2.10;;;22.90;54.20;;;;;;5054859;28;20449;-59
2023/07/07 06:32:37;;;;;;;2.77;2.03;;;22.70;54.00;;;;;;5055354;28;20445;-58
2023/07/07 06:35:04;;;;;;;3.70;2.47;;;22.60;54.10;;;;;;5054577;28;20450;-59
2023/07/07 06:37:31;;;;;;;3.80;2.33;;;22.50;54.20;;;;;;5055354;28;20968;-59
2023/07/07 06:39:58;;;;;;;4.03;2.10;;;22.50;54.40;;;;;;5055637;28;20909;-57
2023/07/07 06:42:24;;;;;;;3.83;2.23;;;22.40;54.30;;;;;;5054818;28;20432;-58
2023/07/07 06:44:51;;;;;;;4.00;2.80;;;22.40;54.50;;;;;;5054384;28;20467;-58
2023/07/07 06:47:19;;;;;;;2.57;1.93;;;22.30;54.60;;;;;;5054566;28;20463;-57
2023/07/07 06:49:46;;;;;;;2.30;2.10;;;22.30;54.70;;;;;;5054417;28;20449;-57
2023/07/07 06:52:13;;;;;;;5.97;2.30;;;22.20;54.60;;;;;;5054595;28;20515;-57
2023/07/07 06:54:40;;;;;;;3.17;2.60;;;22.20;54.70;;;;;;5054018;28;20539;-57
2023/07/07 06:57:07;;;;;;;6.10;2.80;;;22.20;54.80;;;;;;5054936;28;20569;-56
2023/07/07 06:59:34;;;;;;;2.53;2.30;;;22.20;55.00;;;;;;5055310;28;20502;-58
2023/07/07 07:02:01;;;;;;;2.53;2.33;;;22.20;55.10;;;;;;5054073;28;20448;-58
2023/07/07 07:04:29;;;;;;;3.90;2.30;;;22.20;55.00;;;;;;5053981;28;20452;-58
2023/07/07 07:06:55;;;;;;;3.63;2.20;;;22.30;54.90;;;;;;5053952;28;20460;-58
2023/07/07 07:09:22;;;;;;;2.13;1.93;;;22.40;54.70;;;;;;5055038;28;20566;-57
2023/07/07 07:11:49;;;;;;;4.00;2.67;;;22.50;54.40;;;;;;5053813;28;20834;-57
2023/07/07 07:14:16;;;;;;;3.00;2.10;;;22.60;54.30;;;;;;5053952;28;20447;-58
2023/07/07 07:16:42;;;;;;;3.23;2.43;;;22.60;54.20;;;;;;5053792;28;20472;-56
2023/07/07 07:19:09;;;;;;;2.50;2.20;;;22.60;54.10;;;;;;5054263;28;20812;-58
2023/07/07 07:21:37;;;;;;;2.70;1.87;;;22.70;53.90;;;;;;5053812;28;20447;-58
2023/07/07 07:24:04;;;;;;;4.50;2.50;;;22.70;53.80;;;;;;5054207;28;20447;-56
2023/07/07 07:26:31;;;;;;;4.07;2.47;;;22.80;53.70;;;;;;5053878;28;20471;-58
2023/07/07 07:28:58;;;;;;;3.30;2.33;;;22.90;53.60;;;;;;5053511;28;20455;-58
2023/07/07 07:31:26;;;;;;;2.80;2.23;;;23.00;53.40;;;;;;5053566;28;20472;-56
2023/07/07 07:33:55;;;;;;;2.70;2.10;;;23.10;53.20;;;;;;5053840;28;20444;-58
2023/07/07 07:36:22;;;;;;;2.97;2.27;;;23.20;53.00;;;;;;5053948;28;20474;-58
2023/07/07 07:38:50;;;;;;;2.60;2.23;;;23.30;52.80;;;;;;5053237;28;20441;-58
2023/07/07 07:41:17;;;;;;;4.57;2.23;;;23.40;52.70;;;;;;5053429;28;20444;-58
2023/07/07 07:43:44;;;;;;;3.70;2.30;;;23.40;52.40;;;;;;5053120;28;20452;-59
2023/07/07 07:46:11;;;;;;;5.50;2.67;;;23.50;52.20;;;;;;5053053;28;20452;-58
2023/07/07 07:48:37;;;;;;;3.80;2.00;;;23.50;51.90;;;;;;5052754;28;20968;-58
2023/07/07 07:51:04;;;;;;;2.20;2.00;;;23.60;51.80;;;;;;5052444;28;20508;-58
2023/07/07 07:53:31;;;;;;;3.90;2.63;;;23.50;51.90;;;;;;5052772;28;20475;-59
2023/07/07 07:55:59;;;;;;;2.37;2.00;;;23.30;52.00;;;;;;5053339;28;20458;-58
2023/07/07 07:58:26;;;;;;;3.23;2.60;;;23.30;52.20;;;;;;5052876;28;20425;-56
2023/07/07 08:00:53;;;;;;;2.93;2.07;;;23.40;52.10;;;;;;5052389;28;20453;-59
2023/07/07 08:03:20;;;;;;;2.37;2.10;;;23.50;51.90;;;;;;5052710;28;20959;-58
2023/07/07 08:05:46;;;;;;;4.23;2.10;;;23.70;51.50;;;;;;5052830;28;20488;-57
2023/07/07 08:09:05;;;;;;;2.60;2.10;;;23.90;51.10;;;;;;5057222;28;20447;-58
2023/07/07 08:12:00;;;;;;;3.23;2.30;;;24.10;51.00;;;;;;4975721;28;20854;-57
2023/07/07 08:14:31;;;;;;;2.90;2.60;;;24.20;50.70;;;;;;5053181;28;20455;-57
2023/07/07 08:17:01;;;;;;;3.37;2.40;;;24.40;50.50;;;;;;5056632;28;20477;-58
2023/07/07 08:19:30;;;;;;;3.20;2.60;;;24.40;50.30;;;;;;5052677;28;20434;-58
2023/07/07 08:21:58;;;;;;;5.43;2.30;;;24.50;50.20;;;;;;5052414;28;20443;-57
2023/07/07 08:24:26;;;;;;;3.33;2.30;;;24.60;49.90;;;;;;5052508;28;20442;-56
2023/07/07 08:26:53;;;;;;;3.63;1.97;;;24.80;49.80;;;;;;5052540;28;20832;-57
2023/07/07 08:29:21;;;;;;;3.43;2.13;;;24.90;49.30;;;;;;5052201;28;20868;-57
2023/07/07 08:31:48;;;;;;;2.90;2.10;;;25.10;49.00;;;;;;5052327;28;20489;-58
2023/07/07 08:34:17;;;;;;;4.27;2.70;;;25.10;48.80;;;;;;5052847;28;20446;-57
2023/07/07 08:36:44;;;;;;;3.60;2.67;;;25.10;48.70;;;;;;5051830;28;20956;-57
2023/07/07 08:39:13;;;;;;;6.50;2.67;;;25.20;48.70;;;;;;5052366;28;20816;-56
2023/07/07 08:41:47;;;;;;;2.53;2.33;;;25.30;48.70;;;;;;5051757;28;20934;-58
2023/07/07 08:44:16;;;;;;;3.40;1.97;;;25.20;48.20;;;;;;5052586;28;20443;-58
2023/07/07 08:47:07;;;;;;;2.37;2.17;;;25.10;48.00;;;;;;5053405;28;20497;-57
2023/07/07 08:49:42;;;;;;;2.50;2.10;;;25.10;48.10;;;;;;5052763;28;20466;-57
2023/07/07 08:52:22;;;;;;;4.40;2.10;;;25.20;48.10;;;;;;5052729;28;20468;-58
2023/07/07 08:54:55;;;;;;;2.50;2.30;;;25.30;47.80;;;;;;5052170;28;20976;-57
2023/07/07 08:57:27;;;;;;;3.17;1.93;;;25.50;47.50;;;;;;5053616;28;20487;-58
2023/07/07 09:00:01;;;;;;;2.67;1.90;;;25.50;47.20;;;;;;5056460;28;20451;-57
2023/07/07 09:03:02;;;;;;;3.00;1.87;;;25.50;47.20;;;;;;5056182;28;20918;-57
2023/07/07 09:05:40;;;;;;;2.87;1.93;;;25.50;47.10;;;;;;5056616;28;20445;-59
2023/07/07 09:08:15;;;;;;;3.03;1.80;;;25.50;46.90;;;;;;5055959;28;20464;-58
2023/07/07 09:10:52;;;;;;;2.53;2.30;;;25.50;46.40;;;;;;5056330;28;20516;-60
2023/07/07 09:13:27;;;;;;;3.10;2.00;;;25.60;46.20;;;;;;5059088;28;20523;-59
2023/07/07 09:16:10;;;;;;;4.23;3.93;;;25.70;45.90;;;;;;5056838;28;20434;-58
2023/07/07 09:18:43;;;;;;;3.30;2.27;;;25.90;45.10;;;;;;5056393;28;20489;-57
2023/07/07 09:21:29;;;;;;;3.70;2.47;;;25.90;44.90;;;;;;5056318;28;20434;-59
2023/07/07 09:23:59;;;;;;;2.70;2.13;;;25.90;44.80;;;;;;5055753;28;20453;-57
2023/07/07 09:26:30;;;;;;;5.20;2.17;;;26.00;44.00;;;;;;5056024;28;20460;-58
2023/07/07 09:28:58;;;;;;;2.27;2.07;;;26.10;43.70;;;;;;5056257;28;20428;-59
2023/07/07 09:31:31;;;;;;;3.00;1.67;;;26.30;43.00;;;;;;5055736;28;20476;-58
2023/07/07 09:34:02;;;;;;;2.57;1.67;;;26.50;41.90;;;;;;5056056;28;20428;-58
2023/07/07 09:36:33;;;;;;;2.70;1.90;;;26.70;41.30;;;;;;5055835;28;20514;-57
2023/07/07 09:39:20;;;;;;;2.70;1.67;;;26.80;40.50;;;;;;5056115;28;20424;-57
2023/07/07 09:41:57;;;;;;;2.30;1.53;;;26.90;39.70;;;;;;5055661;28;20430;-57
2023/07/07 09:44:43;;;;;;;2.30;2.10;;;26.90;39.30;;;;;;5055521;28;20793;-58
2023/07/07 09:47:22;;;;;;;9.20;6.57;;;27.00;38.90;;;;;;5055250;28;20472;-56
2023/07/07 09:49:55;;;;;;;1.67;1.43;;;27.00;38.90;;;;;;5056159;28;20876;-59
2023/07/07 09:52:40;;;;;;;2.30;1.87;;;27.10;39.10;;;;;;5057763;28;20472;-57
2023/07/07 09:55:17;;;;;;;2.40;2.10;;;27.10;38.40;;;;;;5056547;28;20429;-58
2023/07/07 09:58:12;;;;;;;1.80;1.60;;;27.20;37.90;;;;;;5056874;28;20482;-59
2023/07/07 10:00:41;;;;;;;2.63;1.73;;;27.00;37.40;;;;;;5055332;28;20439;-59
2023/07/07 10:03:21;;;;;;;1.97;1.80;;;27.00;37.60;;;;;;5055489;28;20439;-57
2023/07/07 10:05:50;;;;;;;2.33;1.67;;;27.00;37.70;;;;;;5054802;28;20423;-58
2023/07/07 10:08:17;;;;;;;2.53;1.87;;;27.10;37.40;;;;;;5054757;28;20959;-59
2023/07/07 10:10:43;;;;;;;2.20;1.80;;;27.20;37.80;;;;;;5055590;28;20446;-59
2023/07/07 10:13:11;;;;;;;2.37;2.03;;;27.20;37.20;;;;;;5056054;28;20490;-59
2023/07/07 10:15:50;;;;;;;3.03;2.10;;;27.40;37.50;;;;;;5058888;28;20455;-59
2023/07/07 10:18:21;;;;;;;3.70;2.50;;;27.60;37.20;;;;;;5055653;28;20925;-59
2023/07/07 10:20:50;;;;;;;2.50;1.90;;;27.60;37.10;;;;;;5055829;28;20439;-59
2023/07/07 10:23:17;;;;;;;3.30;1.90;;;27.60;37.10;;;;;;5055437;28;20451;-59
2023/07/07 10:25:46;;;;;;;1.80;1.40;;;27.70;37.00;;;;;;5054826;28;20454;-55
2023/07/07 10:28:16;;;;;;;3.20;1.60;;;27.70;37.00;;;;;;5054532;28;20824;-58
2023/07/07 10:30:43;;;;;;;8.13;1.80;;;27.60;36.90;;;;;;5054443;28;20453;-57
2023/07/07 10:33:12;;;;;;;2.87;1.77;;;27.50;37.10;;;;;;5054246;28;20482;-59
2023/07/07 10:35:40;;;;;;;2.87;1.70;;;27.40;37.20;;;;;;5054539;28;20450;-59
2023/07/07 10:38:11;;;;;;;2.30;1.90;;;27.30;36.80;;;;;;5053958;28;20828;-58
2023/07/07 10:40:40;;;;;;;4.60;2.10;;;27.30;37.00;;;;;;5054247;28;20438;-60
2023/07/07 10:43:10;;;;;;;2.63;1.80;;;27.40;36.80;;;;;;5054138;28;20827;-58
2023/07/07 10:45:37;;;;;;;2.57;2.00;;;27.50;36.60;;;;;;5054369;28;20423;-58
2023/07/07 10:48:09;;;;;;;3.13;2.23;;;27.40;36.50;;;;;;5054059;28;20467;-60
2023/07/07 10:50:40;;;;;;;2.30;2.10;;;27.40;36.30;;;;;;5054902;28;20490;-59
2023/07/07 10:53:24;;;;;;;2.93;1.80;;;27.40;35.80;;;;;;5054271;28;20468;-58
2023/07/07 10:56:10;;;;;;;2.80;1.83;;;27.30;36.00;;;;;;5053902;28;20527;-59
2023/07/07 10:59:01;;;;;;;3.47;2.67;;;27.40;36.30;;;;;;5055104;28;20427;-59
2023/07/07 11:01:34;;;;;;;2.67;1.63;;;27.40;36.50;;;;;;5050093;28;20460;-57
2023/07/07 11:04:38;;;;;;;2.83;1.83;;;27.50;36.70;;;;;;5053743;28;20917;-57
2023/07/07 11:07:18;;;;;;;2.00;1.70;;;27.60;36.90;;;;;;5049995;28;20578;-57
2023/07/07 11:10:12;;;;;;;3.30;2.00;;;27.70;37.00;;;;;;5054276;28;20431;-58
2023/07/07 11:12:46;;;;;;;2.17;1.80;;;27.70;36.60;;;;;;5080806;22;20486;-59
2023/07/07 11:15:22;;;;;;;3.50;2.10;;;27.60;36.50;;;;;;5075838;28;20430;-59
2023/07/07 11:18:03;;;;;;;2.43;2.00;;;27.50;36.70;;;;;;5075425;28;20426;-59
2023/07/07 11:20:48;;;;;;;4.50;2.20;;;27.60;36.90;;;;;;5074374;28;20439;-60
2023/07/07 11:23:33;;;;;;;4.00;1.83;;;27.80;36.70;;;;;;5074626;28;20469;-59
2023/07/07 11:26:10;;;;;;;2.03;1.87;;;28.00;36.10;;;;;;5074087;28;20427;-58
2023/07/07 11:28:46;;;;;;;3.20;1.70;;;28.00;36.10;;;;;;5074358;28;20431;-58
2023/07/07 11:31:44;;;;;;;3.40;1.67;;;28.10;35.90;;;;;;5075114;28;20453;-59
2023/07/07 11:34:28;;;;;;;1.83;1.47;;;28.20;35.50;;;;;;5074285;28;20429;-60
2023/07/07 11:37:10;;;;;;;2.80;1.90;;;28.10;35.60;;;;;;5074953;28;20424;-58
2023/07/07 11:39:59;;;;;;;4.97;1.80;;;28.30;35.40;;;;;;5075091;28;20433;-58
2023/07/07 11:42:53;;;;;;;2.13;1.93;;;28.30;35.30;;;;;;5075039;28;20474;-60
2023/07/07 11:45:27;;;;;;;2.37;1.60;;;28.30;35.40;;;;;;5075276;28;20431;-59
2023/07/07 11:48:17;;;;;;;2.30;1.30;;;28.30;35.50;;;;;;5073689;28;20917;-59
2023/07/07 11:51:05;;;;;;;2.53;1.67;;;28.30;35.60;;;;;;5074231;28;20434;-60
2023/07/07 11:53:58;;;;;;;3.53;1.80;;;28.40;35.40;;;;;;5073726;28;20470;-60
2023/07/07 11:56:43;;;;;;;2.30;1.50;;;28.40;35.20;;;;;;5073780;28;20441;-59
2023/07/07 11:59:29;;;;;;;2.13;1.77;;;28.60;34.80;;;;;;5073597;28;20431;-59
2023/07/07 12:01:58;;;;;;;1.73;1.63;;;28.70;34.20;;;;;;5073487;28;20470;-58
2023/07/07 12:04:31;;;;;;;2.77;2.00;;;29.00;34.10;;;;;;5074424;28;20444;-57
2023/07/07 12:07:02;;;;;;;2.47;2.13;;;29.50;33.80;;;;;;5074227;28;20424;-54
2023/07/07 12:09:37;;;;;;;2.70;1.50;;;30.40;33.30;;;;;;5074497;28;20441;-60
2023/07/07 12:12:12;;;;;;;3.10;2.00;;;31.10;32.20;;;;;;5074315;28;20474;-59
2023/07/07 12:14:47;;;;;;;2.20;1.53;;;31.50;31.10;;;;;;5074694;28;20432;-58
2023/07/07 12:17:27;;;;;;;1.93;1.73;;;31.70;30.80;;;;;;5074470;28;20425;-59
2023/07/07 12:19:58;;;;;;;3.40;2.10;;;31.90;30.60;;;;;;5073988;28;20437;-60
2023/07/07 12:22:30;;;;;;;2.67;2.07;;;32.20;30.90;;;;;;5074529;28;20458;-59
2023/07/07 12:25:01;;;;;;;2.00;1.60;;;32.40;30.10;;;;;;5074266;28;20443;-57
2023/07/07 12:27:34;;;;;;;2.63;1.83;;;32.50;30.00;;;;;;5073760;28;20431;-59
2023/07/07 12:30:03;;;;;;;3.70;1.80;;;32.70;29.90;;;;;;5073154;28;20921;-59
2023/07/07 12:32:30;;;;;;;4.53;1.90;;;32.90;29.80;;;;;;5075375;28;20530;-56
2023/07/07 12:35:06;;;;;;;2.77;1.80;;;33.20;29.50;;;;;;5077323;28;20956;-59
2023/07/07 12:37:34;;;;;;;2.50;2.07;;;33.30;29.10;;;;;;5078183;28;20938;-58
2023/07/07 12:40:05;;;;;;;5.30;4.80;;;33.30;29.00;;;;;;5077692;28;20460;-58
2023/07/07 12:42:33;;;;;;;4.83;3.17;;;33.30;29.00;;;;;;5077340;28;20974;-60
2023/07/07 12:45:10;;;;;;;2.10;1.70;;;33.20;29.00;;;;;;5077830;28;20459;-59
2023/07/07 12:47:40;;;;;;;2.20;1.60;;;33.00;29.10;;;;;;5077689;28;20434;-59
2023/07/07 12:50:22;;;;;;;4.20;1.80;;;32.40;29.30;;;;;;5078020;28;20809;-58
2023/07/07 12:52:51;;;;;;;7.13;6.50;;;31.70;29.90;;;;;;5077744;28;20484;-60
2023/07/07 12:55:24;;;;;;;2.17;1.80;;;31.10;30.40;;;;;;5078017;28;20472;-60
2023/07/07 12:58:29;;;;;;;2.50;1.80;;;30.60;30.70;;;;;;5077620;28;20444;-59
2023/07/07 13:01:10;;;;;;;3.73;1.80;;;30.00;31.00;;;;;;5078201;28;20431;-60
2023/07/07 13:03:45;;;;;;;2.20;1.60;;;29.50;31.90;;;;;;5077932;28;20489;-59
2023/07/07 13:06:26;;;;;;;2.50;1.77;;;29.20;32.50;;;;;;5077498;28;20447;-59
2023/07/07 13:09:20;;;;;;;2.00;1.13;;;29.20;32.80;;;;;;5077396;28;20444;-59
2023/07/07 13:11:48;;;;;;;1.70;1.60;;;29.20;32.50;;;;;;5074427;28;20487;-59